createdAt,value
2022-09-12T00:00:30.270Z,99.99
2022-09-12T00:01:30.274Z,99.99
2022-09-12T00:02:30.255Z,99.99
2022-09-12T00:03:30.217Z,99.99
2022-09-12T00:04:30.203Z,99.99
2022-09-12T00:05:30.187Z,99.99
2022-09-12T00:06:30.173Z,99.99
2022-09-12T00:07:30.155Z,99.99
2022-09-12T00:08:30.141Z,99.99
2022-09-12T00:09:30.121Z,99.99
2022-09-12T00:10:30.109Z,99.99
2022-09-12T00:11:30.094Z,99.99
2022-09-12T00:12:30.077Z,99.99
2022-09-12T00:13:30.058Z,99.99
2022-09-12T00:14:30.044Z,99.99
2022-09-12T00:15:30.029Z,99.99
2022-09-12T00:16:30.055Z,99.99
2022-09-12T00:17:29.996Z,99.99
2022-09-12T00:18:29.981Z,99.99
2022-09-12T00:19:29.966Z,99.99
2022-09-12T00:20:29.949Z,99.99
2022-09-12T00:21:29.931Z,99.99
2022-09-12T00:22:29.918Z,99.99
2022-09-12T00:23:29.901Z,99.99
2022-09-12T00:24:29.888Z,99.99
2022-09-12T00:25:29.868Z,99.99
2022-09-12T00:26:29.855Z,99.99
2022-09-12T00:27:29.837Z,99.99
2022-09-12T00:28:29.822Z,99.99
2022-09-12T00:29:29.820Z,99.99
2022-09-12T00:30:29.790Z,99.99
2022-09-12T00:31:29.812Z,99.99
2022-09-12T00:32:29.760Z,99.99
2022-09-12T00:33:29.741Z,99.99
2022-09-12T00:34:29.727Z,99.99
2022-09-12T00:35:29.711Z,99.99
2022-09-12T00:36:29.697Z,99.99
2022-09-12T00:37:29.679Z,99.99
2022-09-12T00:38:29.663Z,99.99
2022-09-12T00:39:29.649Z,99.99
2022-09-12T00:40:29.633Z,99.99
2022-09-12T00:41:29.614Z,99.99
2022-09-12T00:42:29.600Z,99.99
2022-09-12T00:43:29.582Z,99.99
2022-09-12T00:44:29.570Z,99.99
2022-09-12T00:45:29.621Z,99.99
2022-09-12T00:46:29.537Z,99.99
2022-09-12T00:47:29.522Z,99.99
2022-09-12T00:48:29.504Z,99.99
2022-09-12T00:49:29.491Z,99.99
2022-09-12T00:50:29.473Z,99.99
2022-09-12T00:51:29.457Z,99.99
2022-09-12T00:52:29.443Z,99.99
2022-09-12T00:53:29.422Z,99.99
2022-09-12T00:54:29.407Z,99.99
2022-09-12T00:55:29.393Z,99.99
2022-09-12T00:56:29.378Z,99.99
2022-09-12T00:57:29.363Z,99.99
2022-09-12T00:58:29.347Z,99.99
2022-09-12T00:59:29.329Z,99.99
2022-09-12T01:00:29.313Z,99.99
2022-09-12T01:01:32.412Z,99.99
2022-09-12T01:02:29.279Z,99.99
2022-09-12T01:03:29.264Z,99.99
2022-09-12T01:04:29.248Z,99.99
2022-09-12T01:05:29.231Z,99.99
2022-09-12T01:06:29.215Z,99.99
2022-09-12T01:07:29.200Z,99.99
2022-09-12T01:08:29.187Z,99.99
2022-09-12T01:09:29.169Z,99.99
2022-09-12T01:10:29.153Z,99.99
2022-09-12T01:11:29.135Z,99.99
2022-09-12T01:12:29.121Z,99.99
2022-09-12T01:13:29.207Z,99.99
2022-09-12T01:14:29.086Z,99.99
2022-09-12T01:15:29.074Z,99.99
2022-09-12T01:16:29.092Z,99.99
2022-09-12T01:17:29.144Z,99.99
2022-09-12T01:18:29.023Z,99.99
2022-09-12T01:19:29.007Z,99.99
2022-09-12T01:20:28.992Z,99.99
2022-09-12T01:21:28.975Z,99.99
2022-09-12T01:22:28.970Z,99.99
2022-09-12T01:23:28.943Z,99.99
2022-09-12T01:24:28.929Z,99.99
2022-09-12T01:25:28.909Z,99.99
2022-09-12T01:26:28.898Z,99.99
2022-09-12T01:27:28.878Z,99.99
2022-09-12T01:28:28.864Z,99.99
2022-09-12T01:29:28.846Z,99.99
2022-09-12T01:30:28.833Z,99.99
2022-09-12T01:31:28.814Z,99.99
2022-09-12T01:32:28.835Z,99.99
2022-09-12T01:33:28.786Z,99.99
2022-09-12T01:34:28.769Z,99.99
2022-09-12T01:35:28.749Z,99.99
2022-09-12T01:36:28.735Z,99.99
2022-09-12T01:37:28.718Z,99.99
2022-09-12T01:38:28.701Z,99.99
2022-09-12T01:39:28.685Z,99.99
2022-09-12T01:40:28.669Z,99.99
2022-09-12T01:41:28.653Z,99.99
2022-09-12T01:42:28.637Z,99.99
2022-09-12T01:43:28.622Z,99.99
2022-09-12T01:44:28.604Z,99.99
2022-09-12T01:45:28.628Z,99.99
2022-09-12T01:46:28.575Z,99.99
2022-09-12T01:47:28.555Z,99.99
2022-09-12T01:48:28.544Z,99.99
2022-09-12T01:49:28.523Z,99.99
2022-09-12T01:50:28.510Z,99.99
2022-09-12T01:51:28.490Z,99.99
2022-09-12T01:52:28.475Z,99.99
2022-09-12T01:53:28.458Z,99.99
2022-09-12T01:54:28.446Z,99.99
2022-09-12T01:55:28.425Z,99.99
2022-09-12T01:56:28.411Z,99.99
2022-09-12T01:57:28.392Z,99.99
2022-09-12T01:58:28.378Z,99.99
2022-09-12T01:59:28.362Z,99.99
2022-09-12T02:00:28.347Z,99.99
2022-09-12T02:01:28.375Z,99.99
2022-09-12T02:02:28.381Z,99.99
2022-09-12T02:03:28.295Z,99.99
2022-09-12T02:04:31.112Z,99.99
2022-09-12T02:05:28.263Z,99.99
2022-09-12T02:06:28.248Z,99.99
2022-09-12T02:07:28.231Z,99.99
2022-09-12T02:08:28.216Z,99.99
2022-09-12T02:09:28.200Z,99.99
2022-09-12T02:10:32.251Z,99.99
2022-09-12T02:11:28.171Z,99.99
2022-09-12T02:12:28.151Z,99.99
2022-09-12T02:13:28.136Z,99.99
2022-09-12T02:14:28.118Z,99.99
2022-09-12T02:15:28.102Z,99.99
2022-09-12T02:16:28.135Z,99.99
2022-09-12T02:17:28.067Z,99.99
2022-09-12T02:18:28.051Z,99.99
2022-09-12T02:19:28.035Z,99.99
2022-09-12T02:20:47.035Z,99.99
2022-09-12T02:21:28.003Z,99.99
2022-09-12T02:22:27.989Z,99.99
2022-09-12T02:23:27.970Z,99.99
2022-09-12T02:24:27.955Z,99.99
2022-09-12T02:25:27.957Z,99.99
2022-09-12T02:26:27.922Z,99.99
2022-09-12T02:27:27.904Z,99.99
2022-09-12T02:28:27.891Z,99.99
2022-09-12T02:29:27.871Z,99.99
2022-09-12T02:30:27.882Z,99.99
2022-09-12T02:31:27.838Z,99.99
2022-09-12T02:32:27.825Z,99.99
2022-09-12T02:33:27.812Z,99.99
2022-09-12T02:34:27.791Z,99.99
2022-09-12T02:35:27.774Z,99.99
2022-09-12T02:36:27.760Z,99.99
2022-09-12T02:37:27.742Z,99.99
2022-09-12T02:38:27.724Z,99.99
2022-09-12T02:39:27.709Z,99.99
2022-09-12T02:40:27.696Z,99.99
2022-09-12T02:41:27.673Z,99.99
2022-09-12T02:42:27.662Z,99.99
2022-09-12T02:43:27.643Z,99.99
2022-09-12T02:44:27.629Z,99.99
2022-09-12T02:45:27.653Z,99.99
2022-09-12T02:46:27.594Z,99.99
2022-09-12T02:47:27.578Z,99.99
2022-09-12T02:48:27.561Z,99.99
2022-09-12T02:49:27.543Z,99.99
2022-09-12T02:50:27.527Z,99.99
2022-09-12T02:51:27.510Z,99.99
2022-09-12T02:52:27.496Z,99.99
2022-09-12T02:53:27.481Z,99.99
2022-09-12T02:54:27.464Z,99.99
2022-09-12T02:55:27.449Z,99.99
2022-09-12T02:56:27.430Z,99.99
2022-09-12T02:57:27.411Z,99.99
2022-09-12T02:58:27.396Z,99.99
2022-09-12T02:59:27.379Z,99.99
2022-09-12T03:00:27.369Z,99.99
2022-09-12T03:01:27.383Z,99.99
2022-09-12T03:02:27.369Z,99.99
2022-09-12T03:03:27.315Z,99.99
2022-09-12T03:04:27.300Z,99.99
2022-09-12T03:05:27.282Z,99.99
2022-09-12T03:06:27.263Z,99.99
2022-09-12T03:07:27.249Z,99.99
2022-09-12T03:08:27.232Z,99.99
2022-09-12T03:09:27.217Z,99.99
2022-09-12T03:10:27.202Z,99.99
2022-09-12T03:11:27.181Z,99.99
2022-09-12T03:12:27.168Z,99.99
2022-09-12T03:13:27.149Z,99.99
2022-09-12T03:14:27.135Z,99.99
2022-09-12T03:15:27.116Z,99.99
2022-09-12T03:16:27.140Z,99.99
2022-09-12T03:17:27.085Z,99.99
2022-09-12T03:18:27.069Z,99.99
2022-09-12T03:19:27.051Z,99.99
2022-09-12T03:20:27.036Z,99.99
2022-09-12T03:21:27.016Z,99.99
2022-09-12T03:22:27.004Z,99.99
2022-09-12T03:23:26.985Z,99.99
2022-09-12T03:24:26.970Z,99.99
2022-09-12T03:25:26.958Z,99.99
2022-09-12T03:26:26.936Z,99.99
2022-09-12T03:27:26.921Z,99.99
2022-09-12T03:28:26.904Z,99.99
2022-09-12T03:29:26.887Z,99.99
2022-09-12T03:30:26.895Z,99.99
2022-09-12T03:31:26.856Z,99.99
2022-09-12T03:32:26.839Z,99.99
2022-09-12T03:33:26.819Z,99.99
2022-09-12T03:34:26.801Z,99.99
2022-09-12T03:35:26.790Z,99.99
2022-09-12T03:36:26.771Z,99.99
2022-09-12T03:37:26.754Z,99.99
2022-09-12T03:38:26.735Z,99.99
2022-09-12T03:39:26.723Z,99.99
2022-09-12T03:40:26.706Z,99.99
2022-09-12T03:41:26.688Z,99.99
2022-09-12T03:42:26.672Z,99.99
2022-09-12T03:43:26.657Z,99.99
2022-09-12T03:44:26.639Z,99.99
2022-09-12T03:45:26.668Z,99.99
2022-09-12T03:46:26.606Z,99.99
2022-09-12T03:47:26.596Z,99.99
2022-09-12T03:48:26.572Z,99.99
2022-09-12T03:49:26.555Z,99.99
2022-09-12T03:50:26.538Z,99.99
2022-09-12T03:51:26.525Z,99.99
2022-09-12T03:52:26.508Z,99.99
2022-09-12T03:53:26.495Z,99.99
2022-09-12T03:54:26.472Z,99.99
2022-09-12T03:55:26.457Z,99.99
2022-09-12T03:56:26.448Z,99.99
2022-09-12T03:57:26.425Z,99.99
2022-09-12T03:58:26.406Z,99.99
2022-09-12T03:59:26.393Z,99.99
2022-09-12T04:00:26.377Z,99.99
2022-09-12T04:01:26.442Z,99.99
2022-09-12T04:02:26.358Z,99.99
2022-09-12T04:03:26.326Z,99.99
2022-09-12T04:04:26.308Z,99.99
2022-09-12T04:05:26.294Z,99.99
2022-09-12T04:06:26.275Z,99.99
2022-09-12T04:07:26.260Z,99.99
2022-09-12T04:08:26.242Z,99.99
2022-09-12T04:09:26.226Z,99.99
2022-09-12T04:10:26.207Z,99.99
2022-09-12T04:11:26.192Z,99.99
2022-09-12T04:12:26.174Z,99.99
2022-09-12T04:13:26.159Z,99.99
2022-09-12T04:14:26.142Z,99.99
2022-09-12T04:15:26.133Z,99.99
2022-09-12T04:16:26.132Z,99.99
2022-09-12T04:17:26.092Z,99.99
2022-09-12T04:18:26.077Z,99.99
2022-09-12T04:19:26.070Z,99.99
2022-09-12T04:20:26.058Z,99.99
2022-09-12T04:21:26.025Z,99.99
2022-09-12T04:22:26.009Z,99.99
2022-09-12T04:23:25.991Z,99.99
2022-09-12T04:24:25.977Z,99.99
2022-09-12T04:25:25.963Z,99.99
2022-09-12T04:26:25.942Z,99.99
2022-09-12T04:27:25.926Z,99.99
2022-09-12T04:28:25.908Z,99.99
2022-09-12T04:29:25.895Z,99.99
2022-09-12T04:30:25.902Z,99.99
2022-09-12T04:31:25.866Z,99.99
2022-09-12T04:32:25.842Z,99.99
2022-09-12T04:33:25.825Z,99.99
2022-09-12T04:34:25.812Z,99.99
2022-09-12T04:35:25.792Z,99.99
2022-09-12T04:36:25.775Z,99.99
2022-09-12T04:37:25.757Z,99.99
2022-09-12T04:38:25.747Z,99.99
2022-09-12T04:39:25.727Z,99.99
2022-09-12T04:40:25.711Z,99.99
2022-09-12T04:41:25.700Z,99.99
2022-09-12T04:42:25.674Z,99.99
2022-09-12T04:43:25.660Z,99.99
2022-09-12T04:44:25.641Z,99.99
2022-09-12T04:45:25.626Z,99.99
2022-09-12T04:46:25.607Z,99.99
2022-09-12T04:47:25.590Z,99.99
2022-09-12T04:48:25.578Z,99.99
2022-09-12T04:49:25.557Z,99.99
2022-09-12T04:50:25.542Z,99.99
2022-09-12T04:51:25.524Z,99.99
2022-09-12T04:52:25.507Z,99.99
2022-09-12T04:53:25.494Z,99.99
2022-09-12T04:54:25.474Z,99.99
2022-09-12T04:55:25.459Z,99.99
2022-09-12T04:56:25.444Z,99.99
2022-09-12T04:57:25.425Z,99.99
2022-09-12T04:58:25.411Z,99.99
2022-09-12T04:59:25.398Z,99.99
2022-09-12T05:00:25.377Z,99.99
2022-09-12T05:01:25.395Z,99.99
2022-09-12T05:02:25.409Z,99.99
2022-09-12T05:03:25.327Z,99.99
2022-09-12T05:04:25.305Z,99.99
2022-09-12T05:05:25.291Z,99.99
2022-09-12T05:06:25.272Z,99.99
2022-09-12T05:07:25.256Z,99.99
2022-09-12T05:08:25.239Z,99.99
2022-09-12T05:09:25.225Z,99.99
2022-09-12T05:10:25.205Z,99.99
2022-09-12T05:11:33.012Z,99.99
2022-09-12T05:12:25.170Z,99.99
2022-09-12T05:13:25.157Z,99.99
2022-09-12T05:14:25.136Z,99.99
2022-09-12T05:15:25.126Z,99.99
2022-09-12T05:16:25.138Z,99.99
2022-09-12T05:17:25.094Z,99.99
2022-09-12T05:18:25.071Z,99.99
2022-09-12T05:19:25.059Z,99.99
2022-09-12T05:20:25.040Z,99.99
2022-09-12T05:21:25.022Z,99.99
2022-09-12T05:22:25.006Z,99.99
2022-09-12T05:23:24.988Z,99.99
2022-09-12T05:24:24.974Z,99.99
2022-09-12T05:25:24.958Z,99.99
2022-09-12T05:26:24.939Z,99.99
2022-09-12T05:27:24.925Z,99.99
2022-09-12T05:28:24.902Z,99.99
2022-09-12T05:29:24.888Z,99.99
2022-09-12T05:30:25.003Z,99.99
2022-09-12T05:31:24.857Z,99.99
2022-09-12T05:32:24.837Z,99.99
2022-09-12T05:33:25.270Z,99.99
2022-09-12T05:34:32.470Z,99.99
2022-09-12T05:36:28.764Z,99.99
2022-09-12T05:37:28.745Z,99.99
2022-09-12T05:39:32.698Z,99.99
2022-09-12T05:40:32.664Z,99.99
2022-09-12T05:42:36.630Z,99.99
2022-09-12T05:43:36.601Z,99.99
2022-09-12T05:45:29.663Z,99.99
2022-09-12T05:46:29.463Z,99.99
2022-09-12T05:47:29.443Z,99.99
2022-09-12T05:48:29.432Z,99.99
2022-09-12T05:49:29.412Z,99.99
2022-09-12T05:50:29.395Z,99.99
2022-09-12T05:51:29.398Z,99.99
2022-09-12T05:52:29.360Z,99.99
2022-09-12T05:53:29.344Z,99.99
2022-09-12T05:54:31.700Z,99.99
2022-09-12T05:55:29.311Z,99.99
2022-09-12T05:56:29.298Z,99.99
2022-09-12T05:57:29.278Z,99.99
2022-09-12T05:58:29.261Z,99.99
2022-09-12T05:59:29.247Z,99.99
2022-09-12T06:00:33.297Z,99.99
2022-09-12T06:01:29.232Z,99.99
2022-09-12T06:02:29.294Z,99.99
2022-09-12T06:03:29.182Z,99.99
2022-09-12T06:04:29.170Z,99.99
2022-09-12T06:05:29.147Z,99.99
2022-09-12T06:06:29.130Z,99.99
2022-09-12T06:07:29.115Z,99.99
2022-09-12T06:08:29.099Z,99.99
2022-09-12T06:09:29.084Z,99.99
2022-09-12T06:10:29.065Z,99.99
2022-09-12T06:11:29.048Z,99.99
2022-09-12T06:12:29.034Z,99.99
2022-09-12T06:13:29.015Z,99.99
2022-09-12T06:14:29.001Z,99.99
2022-09-12T06:15:28.983Z,99.99
2022-09-12T06:16:29.007Z,99.99
2022-09-12T06:17:28.949Z,99.99
2022-09-12T06:18:28.936Z,99.99
2022-09-12T06:19:28.920Z,99.99
2022-09-12T06:20:28.907Z,99.99
2022-09-12T06:21:28.890Z,99.99
2022-09-12T06:22:28.870Z,99.99
2022-09-12T06:23:28.855Z,99.99
2022-09-12T06:24:28.839Z,99.99
2022-09-12T06:25:28.822Z,99.99
2022-09-12T06:26:28.811Z,99.99
2022-09-12T06:27:28.789Z,99.99
2022-09-12T06:28:28.775Z,99.99
2022-09-12T06:29:28.757Z,99.99
2022-09-12T06:30:28.844Z,99.99
2022-09-12T06:31:28.726Z,99.99
2022-09-12T06:32:28.711Z,99.99
2022-09-12T06:33:28.695Z,99.99
2022-09-12T06:34:28.680Z,99.99
2022-09-12T06:35:28.661Z,99.99
2022-09-12T06:36:28.648Z,99.99
2022-09-12T06:37:28.631Z,99.99
2022-09-12T06:38:28.616Z,99.99
2022-09-12T06:39:28.599Z,99.99
2022-09-12T06:40:28.587Z,99.99
2022-09-12T06:41:28.570Z,99.99
2022-09-12T06:42:28.555Z,99.99
2022-09-12T06:43:28.536Z,99.99
2022-09-12T06:44:28.523Z,99.99
2022-09-12T06:45:28.507Z,99.99
2022-09-12T06:46:28.495Z,99.99
2022-09-12T06:47:28.479Z,99.99
2022-09-12T06:48:28.463Z,99.99
2022-09-12T06:49:28.446Z,99.99
2022-09-12T06:50:28.431Z,99.99
2022-09-12T06:51:28.415Z,99.99
2022-09-12T06:52:28.402Z,99.99
2022-09-12T06:53:28.383Z,99.99
2022-09-12T06:54:28.369Z,99.99
2022-09-12T06:55:28.355Z,99.99
2022-09-12T06:56:28.339Z,99.99
2022-09-12T06:57:28.333Z,99.99
2022-09-12T06:58:28.320Z,99.99
2022-09-12T06:59:28.292Z,99.99
2022-09-12T07:00:28.282Z,99.99
2022-09-12T07:01:28.317Z,99.99
2022-09-12T07:02:28.289Z,99.99
2022-09-12T07:03:28.232Z,99.99
2022-09-12T07:04:28.218Z,99.99
2022-09-12T07:05:28.201Z,99.99
2022-09-12T07:06:28.189Z,99.99
2022-09-12T07:07:28.171Z,99.99
2022-09-12T07:08:28.161Z,99.99
2022-09-12T07:09:28.144Z,99.99
2022-09-12T07:10:28.131Z,99.99
2022-09-12T07:11:28.112Z,99.99
2022-09-12T07:12:28.099Z,99.99
2022-09-12T07:13:28.088Z,99.99
2022-09-12T07:14:28.070Z,99.99
2022-09-12T07:15:28.054Z,99.99
2022-09-12T07:16:28.116Z,99.99
2022-09-12T07:17:28.069Z,99.99
2022-09-12T07:18:28.013Z,99.99
2022-09-12T07:19:27.998Z,99.99
2022-09-12T07:20:27.982Z,99.99
2022-09-12T07:21:27.967Z,99.99
2022-09-12T07:22:27.956Z,99.99
2022-09-12T07:23:27.937Z,99.99
2022-09-12T07:24:27.922Z,99.99
2022-09-12T07:25:27.905Z,99.99
2022-09-12T07:26:27.897Z,99.99
2022-09-12T07:27:27.882Z,99.99
2022-09-12T07:28:27.864Z,99.99
2022-09-12T07:29:43.133Z,99.99
2022-09-12T07:30:27.854Z,99.99
2022-09-12T07:31:27.821Z,99.99
2022-09-12T07:32:27.805Z,99.99
2022-09-12T07:33:27.792Z,99.99
2022-09-12T07:34:27.776Z,99.99
2022-09-12T07:35:27.768Z,99.99
2022-09-12T07:36:27.751Z,99.99
2022-09-12T07:37:27.738Z,99.99
2022-09-12T07:38:27.722Z,99.99
2022-09-12T07:39:27.712Z,99.99
2022-09-12T07:40:27.693Z,99.99
2022-09-12T07:41:27.680Z,99.99
2022-09-12T07:42:27.664Z,99.99
2022-09-12T07:43:27.686Z,99.99
2022-09-12T07:44:27.637Z,99.99
2022-09-12T07:45:27.626Z,99.99
2022-09-12T07:46:27.614Z,99.99
2022-09-12T07:47:27.599Z,99.99
2022-09-12T07:48:28.523Z,99.99
2022-09-12T07:49:27.571Z,99.99
2022-09-12T07:50:27.557Z,99.99
2022-09-12T07:51:27.547Z,99.99
2022-09-12T07:52:27.530Z,99.99
2022-09-12T07:53:27.519Z,99.99
2022-09-12T07:54:27.507Z,99.99
2022-09-12T07:55:27.497Z,99.99
2022-09-12T07:56:30.513Z,99.99
2022-09-12T07:57:27.468Z,99.99
2022-09-12T07:58:27.455Z,99.99
2022-09-12T07:59:50.831Z,99.99
2022-09-12T08:00:27.432Z,99.99
2022-09-12T08:01:27.506Z,99.99
2022-09-12T08:02:27.450Z,99.99
2022-09-12T08:03:27.394Z,99.99
2022-09-12T08:04:27.385Z,99.99
2022-09-12T08:05:27.371Z,99.99
2022-09-12T08:06:27.358Z,99.99
2022-09-12T08:07:27.348Z,99.99
2022-09-12T08:08:27.336Z,99.99
2022-09-12T08:09:27.325Z,99.99
2022-09-12T08:10:27.311Z,99.35
2022-09-12T08:11:27.300Z,99.06
2022-09-12T08:12:27.291Z,98.92
2022-09-12T08:13:27.278Z,97.47
2022-09-12T08:14:27.268Z,96.80
2022-09-12T08:15:27.400Z,96.80
2022-09-12T08:16:27.244Z,95.84
2022-09-12T08:17:27.233Z,95.55
2022-09-12T08:18:27.222Z,94.73
2022-09-12T08:19:27.213Z,94.64
2022-09-12T08:20:28.455Z,92.22
2022-09-12T08:21:27.189Z,92.13
2022-09-12T08:22:27.180Z,90.30
2022-09-12T08:23:27.169Z,91.07
2022-09-12T08:24:27.157Z,90.20
2022-09-12T08:25:27.151Z,89.67
2022-09-12T08:26:27.157Z,89.39
2022-09-12T08:27:27.127Z,89.58
2022-09-12T08:28:27.116Z,88.08
2022-09-12T08:29:27.108Z,87.60
2022-09-12T08:30:27.105Z,88.27
2022-09-12T08:31:27.093Z,87.60
2022-09-12T08:32:27.079Z,87.64
2022-09-12T08:33:27.072Z,86.29
2022-09-12T08:34:27.060Z,85.42
2022-09-12T08:35:27.048Z,85.61
2022-09-12T08:36:27.041Z,85.37
2022-09-12T08:37:27.028Z,85.17
2022-09-12T08:38:27.021Z,84.79
2022-09-12T08:39:27.013Z,84.50
2022-09-12T08:40:27.000Z,83.96
2022-09-12T08:41:26.993Z,81.07
2022-09-12T08:42:26.982Z,81.07
2022-09-12T08:43:26.988Z,80.97
2022-09-12T08:44:26.969Z,80.97
2022-09-12T08:45:26.963Z,80.82
2022-09-12T08:46:27.037Z,80.82
2022-09-12T08:47:26.949Z,79.95
2022-09-12T08:48:26.929Z,80.33
2022-09-12T08:49:26.979Z,77.83
2022-09-12T08:50:26.915Z,77.86
2022-09-12T08:51:26.907Z,77.38
2022-09-12T08:52:26.895Z,77.48
2022-09-12T08:53:26.888Z,76.03
2022-09-12T08:54:26.877Z,76.32
2022-09-12T08:55:26.877Z,74.19
2022-09-12T08:56:31.469Z,74.00
2022-09-12T08:57:26.853Z,73.07
2022-09-12T08:58:26.847Z,72.20
2022-09-12T08:59:26.839Z,72.97
2022-09-12T09:00:26.835Z,72.68
2022-09-12T09:01:26.862Z,73.07
2022-09-12T09:02:26.860Z,72.24
2022-09-12T09:03:26.806Z,70.20
2022-09-12T09:04:28.737Z,69.82
2022-09-12T09:05:26.787Z,70.04
2022-09-12T09:06:26.780Z,69.75
2022-09-12T09:07:26.777Z,69.89
2022-09-12T09:08:26.768Z,68.82
2022-09-12T09:09:26.757Z,65.66
2022-09-12T09:10:26.750Z,64.11
2022-09-12T09:11:26.741Z,65.08
2022-09-12T09:12:26.745Z,65.27
2022-09-12T09:13:26.725Z,66.08
2022-09-12T09:14:26.716Z,65.98
2022-09-12T09:15:26.771Z,65.50
2022-09-12T09:16:26.729Z,65.43
2022-09-12T09:17:26.696Z,65.72
2022-09-12T09:18:26.688Z,65.53
2022-09-12T09:19:26.685Z,65.05
2022-09-12T09:20:26.675Z,65.05
2022-09-12T09:21:26.675Z,64.47
2022-09-12T09:22:26.659Z,63.78
2022-09-12T09:23:26.654Z,63.40
2022-09-12T09:24:26.646Z,63.53
2022-09-12T09:25:26.647Z,63.85
2022-09-12T09:26:26.681Z,62.91
2022-09-12T09:27:41.832Z,62.55
2022-09-12T09:28:26.622Z,61.61
2022-09-12T09:29:26.613Z,61.71
2022-09-12T09:30:26.608Z,61.54
2022-09-12T09:31:26.633Z,60.96
2022-09-12T09:32:26.596Z,59.92
2022-09-12T09:33:26.592Z,59.63
2022-09-12T09:34:26.584Z,59.46
2022-09-12T09:35:26.577Z,59.27
2022-09-12T09:36:26.574Z,58.10
2022-09-12T09:37:26.564Z,58.10
2022-09-12T09:38:26.557Z,57.64
2022-09-12T09:39:26.557Z,57.35
2022-09-12T09:40:26.551Z,56.18
2022-09-12T09:41:26.545Z,56.57
2022-09-12T09:42:26.545Z,56.47
2022-09-12T09:43:26.533Z,54.75
2022-09-12T09:44:26.528Z,53.77
2022-09-12T09:45:26.521Z,54.62
2022-09-12T09:46:26.586Z,54.82
2022-09-12T09:47:26.512Z,54.33
2022-09-12T09:48:26.513Z,54.62
2022-09-12T09:49:26.499Z,54.52
2022-09-12T09:50:26.496Z,54.33
2022-09-12T09:51:26.494Z,53.67
2022-09-12T09:52:26.489Z,53.89
2022-09-12T09:53:26.481Z,52.83
2022-09-12T09:54:26.475Z,52.63
2022-09-12T09:55:26.471Z,52.34
2022-09-12T09:56:26.467Z,52.53
2022-09-12T09:57:26.463Z,52.73
2022-09-12T09:58:26.459Z,52.63
2022-09-12T09:59:26.457Z,52.07
2022-09-12T10:00:26.450Z,51.97
2022-09-12T10:01:26.454Z,51.09
2022-09-12T10:02:26.492Z,51.19
2022-09-12T10:03:26.439Z,51.17
2022-09-12T10:04:26.433Z,51.17
2022-09-12T10:05:26.429Z,51.17
2022-09-12T10:06:26.430Z,49.90
2022-09-12T10:07:26.419Z,49.63
2022-09-12T10:08:26.417Z,48.75
2022-09-12T10:09:26.411Z,47.17
2022-09-12T10:10:26.406Z,47.66
2022-09-12T10:11:26.402Z,49.02
2022-09-12T10:12:26.395Z,47.85
2022-09-12T10:13:26.395Z,47.95
2022-09-12T10:14:26.391Z,48.44
2022-09-12T10:15:26.383Z,48.63
2022-09-12T10:16:26.378Z,48.73
2022-09-12T10:17:27.923Z,48.95
2022-09-12T10:18:26.369Z,48.66
2022-09-12T10:19:26.367Z,48.46
2022-09-12T10:20:26.410Z,48.07
2022-09-12T10:21:26.361Z,48.39
2022-09-12T10:22:26.354Z,48.00
2022-09-12T10:23:26.367Z,44.97
2022-09-12T10:24:26.346Z,44.87
2022-09-12T10:25:26.491Z,46.14
2022-09-12T10:26:26.337Z,47.02
2022-09-12T10:27:26.334Z,46.83
2022-09-12T10:28:26.336Z,46.83
2022-09-12T10:29:26.323Z,46.92
2022-09-12T10:30:26.409Z,47.02
2022-09-12T10:31:26.315Z,47.05
2022-09-12T10:32:30.513Z,47.05
2022-09-12T10:33:26.314Z,46.09
2022-09-12T10:34:26.307Z,45.12
2022-09-12T10:35:26.302Z,45.58
2022-09-12T10:36:26.338Z,45.95
2022-09-12T10:37:26.307Z,46.90
2022-09-12T10:38:26.288Z,46.80
2022-09-12T10:39:26.320Z,46.39
2022-09-12T10:40:26.395Z,46.39
2022-09-12T10:41:26.276Z,46.10
2022-09-12T10:42:26.304Z,46.37
2022-09-12T10:43:26.428Z,46.37
2022-09-12T10:44:26.270Z,46.25
2022-09-12T10:45:26.256Z,46.73
2022-09-12T10:46:26.303Z,46.34
2022-09-12T10:47:26.251Z,46.25
2022-09-12T10:48:26.243Z,46.73
2022-09-12T10:49:26.241Z,47.03
2022-09-12T10:50:26.231Z,46.64
2022-09-12T10:51:26.243Z,47.05
2022-09-12T10:52:26.226Z,46.49
2022-09-12T10:53:28.903Z,46.49
2022-09-12T10:54:26.215Z,46.00
2022-09-12T10:55:26.210Z,46.31
2022-09-12T10:56:26.212Z,46.14
2022-09-12T10:57:26.202Z,45.58
2022-09-12T10:58:26.195Z,45.19
2022-09-12T10:59:26.191Z,42.58
2022-09-12T11:00:26.189Z,41.97
2022-09-12T11:01:26.241Z,42.55
2022-09-12T11:02:26.235Z,42.14
2022-09-12T11:03:26.176Z,40.47
2022-09-12T11:04:26.176Z,42.69
2022-09-12T11:05:26.233Z,44.05
2022-09-12T11:06:26.160Z,44.05
2022-09-12T11:07:26.242Z,43.27
2022-09-12T11:08:26.153Z,44.05
2022-09-12T11:09:26.193Z,43.47
2022-09-12T11:10:26.437Z,43.47
2022-09-12T11:11:26.141Z,42.49
2022-09-12T11:12:26.137Z,42.98
2022-09-12T11:13:26.136Z,43.57
2022-09-12T11:14:26.185Z,42.90
2022-09-12T11:15:26.120Z,42.90
2022-09-12T11:16:26.115Z,42.73
2022-09-12T11:17:26.115Z,41.85
2022-09-12T11:18:26.119Z,42.05
2022-09-12T11:19:26.105Z,40.68
2022-09-12T11:20:26.097Z,41.95
2022-09-12T11:21:26.097Z,41.56
2022-09-12T11:22:31.085Z,42.24
2022-09-12T11:23:26.117Z,42.75
2022-09-12T11:24:26.228Z,42.26
2022-09-12T11:25:26.079Z,42.26
2022-09-12T11:26:26.073Z,42.65
2022-09-12T11:27:26.068Z,41.58
2022-09-12T11:28:26.103Z,41.28
2022-09-12T11:29:26.711Z,40.39
2022-09-12T11:30:26.056Z,40.29
2022-09-12T11:31:26.051Z,41.61
2022-09-12T11:32:26.047Z,42.10
2022-09-12T11:33:26.046Z,42.96
2022-09-12T11:34:26.039Z,43.43
2022-09-12T11:35:26.036Z,44.86
2022-09-12T11:36:26.028Z,45.06
2022-09-12T11:37:26.023Z,45.42
2022-09-12T11:38:26.018Z,46.30
2022-09-12T11:39:26.012Z,46.20
2022-09-12T11:40:26.722Z,46.11
2022-09-12T11:41:26.003Z,46.20
2022-09-12T11:42:33.727Z,45.62
2022-09-12T11:44:30.467Z,46.23
2022-09-12T11:45:30.442Z,45.57
2022-09-12T11:47:35.915Z,45.00
2022-09-12T11:48:35.954Z,44.52
2022-09-12T11:50:41.385Z,44.49
2022-09-12T11:51:41.373Z,44.49
2022-09-12T11:52:41.354Z,45.06
2022-09-12T11:53:41.350Z,44.55
2022-09-12T11:54:41.343Z,45.23
2022-09-12T11:55:41.342Z,45.14
2022-09-12T11:56:41.343Z,44.72
2022-09-12T11:57:41.330Z,45.50
2022-09-12T11:58:41.402Z,46.25
2022-09-12T11:59:41.320Z,45.28
2022-09-12T12:00:41.312Z,45.97
2022-09-12T12:01:45.014Z,45.94
2022-09-12T12:02:41.320Z,46.72
2022-09-12T12:03:41.328Z,46.50
2022-09-12T12:04:41.285Z,46.11
2022-09-12T12:05:41.281Z,46.69
2022-09-12T12:06:41.283Z,46.79
2022-09-12T12:07:45.458Z,47.28
2022-09-12T12:08:41.413Z,47.47
2022-09-12T12:09:41.256Z,47.76
2022-09-12T12:10:41.250Z,47.86
2022-09-12T12:11:41.250Z,46.81
2022-09-12T12:12:41.364Z,46.72
2022-09-12T12:13:41.230Z,46.23
2022-09-12T12:14:41.226Z,46.62
2022-09-12T12:15:41.273Z,46.91
2022-09-12T12:16:41.212Z,47.03
2022-09-12T12:17:41.208Z,47.15
2022-09-12T12:18:41.205Z,46.20
2022-09-12T12:19:41.195Z,46.01
2022-09-12T12:20:41.188Z,45.91
2022-09-12T12:21:41.188Z,45.86
2022-09-12T12:22:41.177Z,45.29
2022-09-12T12:23:41.174Z,44.54
2022-09-12T12:24:41.165Z,44.19
2022-09-12T12:25:41.817Z,43.53
2022-09-12T12:26:41.157Z,42.60
2022-09-12T12:27:41.200Z,40.47
2022-09-12T12:28:41.145Z,39.88
2022-09-12T12:29:43.822Z,39.62
2022-09-12T12:30:41.135Z,39.53
2022-09-12T12:31:41.132Z,39.53
2022-09-12T12:32:41.154Z,38.45
2022-09-12T12:33:41.126Z,37.96
2022-09-12T12:34:41.121Z,37.27
2022-09-12T12:35:41.117Z,36.88
2022-09-12T12:36:41.122Z,37.06
2022-09-12T12:37:41.108Z,38.14
2022-09-12T12:38:41.106Z,39.00
2022-09-12T12:39:41.148Z,39.51
2022-09-12T12:40:41.128Z,39.31
2022-09-12T12:41:41.096Z,39.14
2022-09-12T12:42:41.102Z,38.75
2022-09-12T12:43:41.090Z,38.84
2022-09-12T12:44:41.089Z,38.35
2022-09-12T12:45:41.083Z,38.04
2022-09-12T12:46:41.131Z,38.10
2022-09-12T12:47:41.075Z,38.89
2022-09-12T12:48:41.069Z,39.57
2022-09-12T12:49:41.067Z,39.96
2022-09-12T12:50:41.062Z,39.08
2022-09-12T12:51:42.746Z,38.81
2022-09-12T12:52:41.055Z,37.06
2022-09-12T12:53:41.056Z,37.16
2022-09-12T12:54:41.050Z,36.38
2022-09-12T12:55:41.048Z,35.79
2022-09-12T12:56:41.044Z,36.85
2022-09-12T12:57:41.736Z,36.44
2022-09-12T12:58:41.036Z,37.21
2022-09-12T12:59:41.105Z,37.96